sensor_id;sensor_type;location;lat;lon;timestamp;temperature;humidity
23769;DHT22;12064;50.890;5.424;2022-10-16T00:05:43;23.90;73.40
23769;DHT22;12064;50.890;5.424;2022-10-16T00:14:37;23.90;73.50
23769;DHT22;12064;50.890;5.424;2022-10-16T00:23:32;23.80;73.70
23769;DHT22;12064;50.890;5.424;2022-10-16T00:32:23;23.80;73.90
23769;DHT22;12064;50.890;5.424;2022-10-16T00:41:17;23.70;73.90
23769;DHT22;12064;50.890;5.424;2022-10-16T00:50:16;23.70;73.90
23769;DHT22;12064;50.890;5.424;2022-10-16T00:59:29;23.70;73.80
23769;DHT22;12064;50.890;5.424;2022-10-16T01:17:57;23.60;74.00
23769;DHT22;12064;50.890;5.424;2022-10-16T01:27:27;23.70;74.00
23769;DHT22;12064;50.890;5.424;2022-10-16T01:36:23;23.60;74.20
23769;DHT22;12064;50.890;5.424;2022-10-16T01:45:19;23.50;74.10
23769;DHT22;12064;50.890;5.424;2022-10-16T01:54:27;23.60;74.20
23769;DHT22;12064;50.890;5.424;2022-10-16T02:03:23;23.50;74.10
23769;DHT22;12064;50.890;5.424;2022-10-16T02:12:37;23.60;74.00
23769;DHT22;12064;50.890;5.424;2022-10-16T02:21:39;23.50;74.20
23769;DHT22;12064;50.890;5.424;2022-10-16T02:30:56;23.50;74.10
23769;DHT22;12064;50.890;5.424;2022-10-16T02:39:49;23.50;74.00
23769;DHT22;12064;50.890;5.424;2022-10-16T02:48:39;23.50;74.10
23769;DHT22;12064;50.890;5.424;2022-10-16T02:57:30;23.50;74.00
23769;DHT22;12064;50.890;5.424;2022-10-16T03:06:21;23.50;74.10
23769;DHT22;12064;50.890;5.424;2022-10-16T03:15:14;23.40;74.00
23769;DHT22;12064;50.890;5.424;2022-10-16T03:24:05;23.40;74.00
23769;DHT22;12064;50.890;5.424;2022-10-16T03:32:56;23.50;74.20
23769;DHT22;12064;50.890;5.424;2022-10-16T03:41:46;23.40;74.10
23769;DHT22;12064;50.890;5.424;2022-10-16T03:51:08;23.50;74.10
23769;DHT22;12064;50.890;5.424;2022-10-16T03:59:59;23.30;74.30
23769;DHT22;12064;50.890;5.424;2022-10-16T04:08:56;23.40;74.30
23769;DHT22;12064;50.890;5.424;2022-10-16T04:17:47;23.30;74.30
23769;DHT22;12064;50.890;5.424;2022-10-16T04:26:37;23.30;74.30
23769;DHT22;12064;50.890;5.424;2022-10-16T04:35:28;23.30;74.20
23769;DHT22;12064;50.890;5.424;2022-10-16T04:44:40;23.40;74.10
23769;DHT22;12064;50.890;5.424;2022-10-16T04:53:31;23.10;75.50
23769;DHT22;12064;50.890;5.424;2022-10-16T05:02:25;23.30;75.30
23769;DHT22;12064;50.890;5.424;2022-10-16T05:11:15;22.90;76.40
23769;DHT22;12064;50.890;5.424;2022-10-16T05:20:06;23.00;76.50
23769;DHT22;12064;50.890;5.424;2022-10-16T05:28:57;23.00;76.60
23769;DHT22;12064;50.890;5.424;2022-10-16T05:37:48;23.20;76.10
23769;DHT22;12064;50.890;5.424;2022-10-16T05:46:41;23.30;75.50
23769;DHT22;12064;50.890;5.424;2022-10-16T05:55:32;23.30;76.00
23769;DHT22;12064;50.890;5.424;2022-10-16T06:04:23;23.30;76.20
23769;DHT22;12064;50.890;5.424;2022-10-16T06:13:14;23.20;76.20
23769;DHT22;12064;50.890;5.424;2022-10-16T06:22:30;23.00;76.60
23769;DHT22;12064;50.890;5.424;2022-10-16T06:31:20;22.90;77.00
23769;DHT22;12064;50.890;5.424;2022-10-16T06:40:17;23.00;77.10
23769;DHT22;12064;50.890;5.424;2022-10-16T06:49:08;23.00;76.90
23769;DHT22;12064;50.890;5.424;2022-10-16T06:57:58;22.90;77.10
23769;DHT22;12064;50.890;5.424;2022-10-16T07:06:49;23.30;76.20
23769;DHT22;12064;50.890;5.424;2022-10-16T07:15:41;23.30;75.60
23769;DHT22;12064;50.890;5.424;2022-10-16T07:24:32;23.00;76.90
23769;DHT22;12064;50.890;5.424;2022-10-16T07:33:25;22.90;77.30
23769;DHT22;12064;50.890;5.424;2022-10-16T07:42:16;23.00;77.10
23769;DHT22;12064;50.890;5.424;2022-10-16T07:51:07;23.10;77.00
23769;DHT22;12064;50.890;5.424;2022-10-16T07:59:58;23.00;77.70
23769;DHT22;12064;50.890;5.424;2022-10-16T08:08:57;23.40;78.10
23769;DHT22;12064;50.890;5.424;2022-10-16T08:18:01;23.40;79.30
23769;DHT22;12064;50.890;5.424;2022-10-16T08:26:55;23.90;78.20
23769;DHT22;12064;50.890;5.424;2022-10-16T08:35:54;24.20;77.90
23769;DHT22;12064;50.890;5.424;2022-10-16T08:53:59;24.30;78.10
23769;DHT22;12064;50.890;5.424;2022-10-16T09:21:23;24.70;76.60
23769;DHT22;12064;50.890;5.424;2022-10-16T09:30:17;24.70;76.10
23769;DHT22;12064;50.890;5.424;2022-10-16T09:39:11;24.50;76.40
23769;DHT22;12064;50.890;5.424;2022-10-16T09:48:11;24.50;75.70
23769;DHT22;12064;50.890;5.424;2022-10-16T09:57:07;24.40;75.70
23769;DHT22;12064;50.890;5.424;2022-10-16T10:06:27;24.40;75.30
23769;DHT22;12064;50.890;5.424;2022-10-16T10:15:16;24.40;75.30
23769;DHT22;12064;50.890;5.424;2022-10-16T10:24:17;24.40;75.00
23769;DHT22;12064;50.890;5.424;2022-10-16T10:43:02;24.30;74.80
23769;DHT22;12064;50.890;5.424;2022-10-16T11:28:45;24.20;74.70
23769;DHT22;12064;50.890;5.424;2022-10-16T11:37:41;24.10;74.80
23769;DHT22;12064;50.890;5.424;2022-10-16T11:46:38;24.00;75.10
23769;DHT22;12064;50.890;5.424;2022-10-16T11:55:46;24.00;74.90
23769;DHT22;12064;50.890;5.424;2022-10-16T12:04:45;24.00;74.80
23769;DHT22;12064;50.890;5.424;2022-10-16T12:23:20;24.00;74.40
23769;DHT22;12064;50.890;5.424;2022-10-16T12:32:27;23.90;74.50
23769;DHT22;12064;50.890;5.424;2022-10-16T12:41:35;23.90;74.70
23769;DHT22;12064;50.890;5.424;2022-10-16T12:50:37;24.00;75.00
23769;DHT22;12064;50.890;5.424;2022-10-16T13:09:02;24.00;75.30
23769;DHT22;12064;50.890;5.424;2022-10-16T13:18:18;24.00;75.50
23769;DHT22;12064;50.890;5.424;2022-10-16T13:36:23;24.00;76.10
23769;DHT22;12064;50.890;5.424;2022-10-16T13:54:58;24.00;76.20
23769;DHT22;12064;50.890;5.424;2022-10-16T14:03:49;24.00;76.20
23769;DHT22;12064;50.890;5.424;2022-10-16T14:12:40;23.90;76.30
23769;DHT22;12064;50.890;5.424;2022-10-16T14:21:34;23.90;76.50
23769;DHT22;12064;50.890;5.424;2022-10-16T14:30:26;23.80;76.70
23769;DHT22;12064;50.890;5.424;2022-10-16T14:39:21;23.90;76.50
23769;DHT22;12064;50.890;5.424;2022-10-16T14:48:17;24.00;76.20
23769;DHT22;12064;50.890;5.424;2022-10-16T14:57:23;24.00;76.60
23769;DHT22;12064;50.890;5.424;2022-10-16T15:16:01;24.00;76.40
23769;DHT22;12064;50.890;5.424;2022-10-16T15:34:38;23.80;77.00
23769;DHT22;12064;50.890;5.424;2022-10-16T15:43:29;23.80;77.10
23769;DHT22;12064;50.890;5.424;2022-10-16T15:52:22;23.80;76.90
23769;DHT22;12064;50.890;5.424;2022-10-16T16:01:13;23.80;76.50
23769;DHT22;12064;50.890;5.424;2022-10-16T16:10:05;23.80;77.00
23769;DHT22;12064;50.890;5.424;2022-10-16T16:18:56;23.80;77.10
23769;DHT22;12064;50.890;5.424;2022-10-16T16:27:47;23.70;77.30
23769;DHT22;12064;50.890;5.424;2022-10-16T16:36:38;23.70;77.40
23769;DHT22;12064;50.890;5.424;2022-10-16T16:45:35;23.70;77.40
23769;DHT22;12064;50.890;5.424;2022-10-16T16:54:26;23.70;77.30
23769;DHT22;12064;50.890;5.424;2022-10-16T17:03:16;23.70;77.40
23769;DHT22;12064;50.890;5.424;2022-10-16T17:12:07;23.70;77.40
23769;DHT22;12064;50.890;5.424;2022-10-16T17:21:04;24.20;76.80
23769;DHT22;12064;50.890;5.424;2022-10-16T17:30:07;24.50;76.20
23769;DHT22;12064;50.890;5.424;2022-10-16T17:39:26;24.70;75.90
23769;DHT22;12064;50.890;5.424;2022-10-16T17:48:44;24.90;75.70
23769;DHT22;12064;50.890;5.424;2022-10-16T17:57:51;25.20;75.50
23769;DHT22;12064;50.890;5.424;2022-10-16T18:06:54;25.40;75.40
23769;DHT22;12064;50.890;5.424;2022-10-16T18:16:07;25.50;75.20
23769;DHT22;12064;50.890;5.424;2022-10-16T18:25:03;25.60;75.00
23769;DHT22;12064;50.890;5.424;2022-10-16T18:33:54;25.80;75.10
23769;DHT22;12064;50.890;5.424;2022-10-16T18:42:48;25.80;74.90
23769;DHT22;12064;50.890;5.424;2022-10-16T18:51:40;25.90;74.70
23769;DHT22;12064;50.890;5.424;2022-10-16T19:00:32;25.90;74.10
23769;DHT22;12064;50.890;5.424;2022-10-16T19:09:23;25.90;73.70
23769;DHT22;12064;50.890;5.424;2022-10-16T19:18:15;25.90;73.40
23769;DHT22;12064;50.890;5.424;2022-10-16T19:27:08;25.90;74.10
23769;DHT22;12064;50.890;5.424;2022-10-16T19:45:16;26.10;73.90
23769;DHT22;12064;50.890;5.424;2022-10-16T19:54:11;26.10;74.00
23769;DHT22;12064;50.890;5.424;2022-10-16T20:03:02;26.20;74.40
23769;DHT22;12064;50.890;5.424;2022-10-16T20:11:55;26.20;74.50
23769;DHT22;12064;50.890;5.424;2022-10-16T20:21:27;25.60;73.00
23769;DHT22;12064;50.890;5.424;2022-10-16T20:30:18;25.40;73.40
23769;DHT22;12064;50.890;5.424;2022-10-16T20:39:09;25.30;73.60
23769;DHT22;12064;50.890;5.424;2022-10-16T20:48:23;25.00;73.90
23769;DHT22;12064;50.890;5.424;2022-10-16T20:57:17;24.80;74.70
23769;DHT22;12064;50.890;5.424;2022-10-16T21:06:09;24.70;75.00
23769;DHT22;12064;50.890;5.424;2022-10-16T21:15:00;24.60;75.30
23769;DHT22;12064;50.890;5.424;2022-10-16T21:23:54;24.50;75.60
23769;DHT22;12064;50.890;5.424;2022-10-16T21:33:02;24.30;75.80
23769;DHT22;12064;50.890;5.424;2022-10-16T21:41:55;24.30;76.00
23769;DHT22;12064;50.890;5.424;2022-10-16T21:50:48;24.20;76.10
23769;DHT22;12064;50.890;5.424;2022-10-16T21:59:39;24.20;76.20
23769;DHT22;12064;50.890;5.424;2022-10-16T22:18:02;24.10;76.30
23769;DHT22;12064;50.890;5.424;2022-10-16T22:26:53;24.10;76.30
23769;DHT22;12064;50.890;5.424;2022-10-16T22:35:43;24.10;76.50
23769;DHT22;12064;50.890;5.424;2022-10-16T22:44:37;24.00;76.50
23769;DHT22;12064;50.890;5.424;2022-10-16T22:53:28;24.00;76.60
23769;DHT22;12064;50.890;5.424;2022-10-16T23:02:18;24.00;76.60
23769;DHT22;12064;50.890;5.424;2022-10-16T23:11:12;24.00;76.70
23769;DHT22;12064;50.890;5.424;2022-10-16T23:20:03;23.90;76.80
23769;DHT22;12064;50.890;5.424;2022-10-16T23:28:57;23.90;76.80
23769;DHT22;12064;50.890;5.424;2022-10-16T23:37:49;24.00;76.80
23769;DHT22;12064;50.890;5.424;2022-10-16T23:46:53;23.90;76.80
23769;DHT22;12064;50.890;5.424;2022-10-16T23:55:43;23.90;76.90
